createdAt,value
2019-03-19T00:01:16.410Z,74.32
2019-03-19T00:03:48.645Z,73.97
2019-03-19T00:06:21.057Z,74.36
2019-03-19T00:08:53.335Z,74.62
2019-03-19T00:11:25.552Z,74.59
2019-03-19T00:13:57.812Z,74.45
2019-03-19T00:16:30.052Z,74.22
2019-03-19T00:19:02.316Z,74.26
2019-03-19T00:21:34.518Z,73.96
2019-03-19T00:24:06.777Z,74.00
2019-03-19T00:26:39.340Z,74.22
2019-03-19T00:29:11.645Z,74.53
2019-03-19T00:31:43.953Z,74.06
2019-03-19T00:34:16.221Z,74.28
2019-03-19T00:36:48.419Z,74.71
2019-03-19T00:39:20.661Z,74.75
2019-03-19T00:41:53.051Z,74.63
2019-03-19T00:44:26.155Z,74.71
2019-03-19T00:46:58.385Z,75.10
2019-03-19T00:49:30.644Z,75.03
2019-03-19T00:52:02.930Z,75.12
2019-03-19T00:54:37.435Z,75.18
2019-03-19T00:57:09.697Z,75.38
2019-03-19T00:59:42.051Z,75.38
2019-03-19T01:02:14.304Z,75.51
2019-03-19T01:04:46.529Z,75.34
2019-03-19T01:07:18.800Z,75.38
2019-03-19T01:09:51.131Z,75.51
2019-03-19T01:12:23.364Z,75.55
2019-03-19T01:14:55.599Z,75.48
2019-03-19T01:17:27.940Z,75.30
2019-03-19T01:20:00.382Z,75.39
2019-03-19T01:22:35.029Z,75.12
2019-03-19T01:25:07.020Z,75.39
2019-03-19T01:27:39.265Z,75.72
2019-03-19T01:30:11.541Z,75.76
2019-03-19T01:32:43.871Z,75.83
2019-03-19T01:35:16.104Z,75.70
2019-03-19T01:37:48.314Z,75.11
2019-03-19T01:40:20.645Z,74.39
2019-03-19T01:42:53.054Z,73.74
2019-03-19T01:45:25.521Z,73.44
2019-03-19T01:47:57.723Z,73.02
2019-03-19T01:50:29.939Z,72.65
2019-03-19T01:53:02.190Z,72.46
2019-03-19T01:55:36.047Z,72.71
2019-03-19T01:58:08.318Z,72.63
2019-03-19T02:00:42.354Z,72.79
2019-03-19T02:03:14.641Z,72.73
2019-03-19T02:05:46.872Z,73.11
2019-03-19T02:08:19.160Z,73.20
2019-03-19T02:10:51.476Z,73.14
2019-03-19T02:13:23.777Z,73.54
2019-03-19T02:15:55.977Z,73.69
2019-03-19T02:18:28.196Z,73.93
2019-03-19T02:21:00.482Z,73.90
2019-03-19T02:23:32.793Z,74.02
2019-03-19T02:26:15.558Z,74.51
2019-03-19T02:28:39.029Z,74.64
2019-03-19T02:31:12.391Z,74.71
2019-03-19T02:33:44.621Z,74.84
2019-03-19T02:36:16.938Z,75.05
2019-03-19T02:38:49.390Z,75.13
2019-03-19T02:41:22.673Z,75.17
2019-03-19T02:43:55.116Z,74.90
2019-03-19T02:46:27.358Z,74.88
2019-03-19T02:48:59.605Z,74.95
2019-03-19T02:51:31.952Z,75.40
2019-03-19T02:54:04.341Z,75.48
2019-03-19T02:56:36.695Z,75.25
2019-03-19T02:59:08.911Z,75.36
2019-03-19T03:01:41.138Z,75.80
2019-03-19T03:04:13.435Z,75.69
2019-03-19T03:06:45.544Z,75.80
2019-03-19T03:09:17.801Z,75.59
2019-03-19T03:11:50.090Z,75.25
2019-03-19T03:14:22.508Z,75.60
2019-03-19T03:16:54.759Z,75.43
2019-03-19T03:19:29.076Z,75.65
2019-03-19T03:22:02.465Z,75.80
2019-03-19T03:24:34.662Z,75.72
2019-03-19T03:27:06.913Z,75.98
2019-03-19T03:29:38.997Z,75.79
2019-03-19T03:32:11.235Z,75.74
2019-03-19T03:34:43.559Z,76.11
2019-03-19T03:37:15.761Z,75.90
2019-03-19T03:39:48.109Z,76.13
2019-03-19T03:42:20.372Z,76.00
2019-03-19T03:44:52.682Z,76.17
2019-03-19T03:47:24.998Z,76.16
2019-03-19T03:49:57.472Z,76.12
2019-03-19T03:52:30.803Z,75.93
2019-03-19T03:55:03.014Z,75.86
2019-03-19T03:57:35.381Z,76.09
2019-03-19T04:00:07.639Z,75.87
2019-03-19T04:02:39.924Z,75.93
2019-03-19T04:05:12.234Z,76.25
2019-03-19T04:07:44.540Z,76.28
2019-03-19T04:10:16.957Z,76.42
2019-03-19T04:12:49.214Z,76.11
2019-03-19T04:15:21.454Z,76.39
2019-03-19T04:17:53.887Z,76.49
2019-03-19T04:20:26.121Z,76.65
2019-03-19T04:22:58.423Z,76.48
2019-03-19T04:25:30.631Z,76.52
2019-03-19T04:28:02.901Z,76.60
2019-03-19T04:30:35.322Z,76.31
2019-03-19T04:33:07.588Z,76.73
2019-03-19T04:35:42.092Z,76.61
2019-03-19T04:38:14.077Z,76.68
2019-03-19T04:40:46.307Z,76.58
2019-03-19T04:43:18.607Z,76.59
2019-03-19T04:45:50.841Z,76.54
2019-03-19T04:48:25.256Z,76.59
2019-03-19T04:50:58.601Z,76.61
2019-03-19T04:53:30.854Z,76.84
2019-03-19T04:56:03.120Z,77.00
2019-03-19T04:58:35.618Z,76.94
2019-03-19T05:01:07.890Z,77.11
2019-03-19T05:03:40.138Z,77.14
2019-03-19T05:06:12.591Z,77.04
2019-03-19T05:08:44.904Z,77.10
2019-03-19T05:11:17.154Z,77.16
2019-03-19T05:13:49.399Z,77.12
2019-03-19T05:16:21.644Z,77.18
2019-03-19T05:18:54.995Z,77.09
2019-03-19T05:21:27.748Z,77.24
2019-03-19T05:24:00.248Z,77.38
2019-03-19T05:26:34.852Z,77.46
2019-03-19T05:29:07.274Z,77.35
2019-03-19T05:31:39.589Z,77.23
2019-03-19T05:34:11.783Z,77.23
2019-03-19T05:36:44.037Z,77.40
2019-03-19T05:39:16.526Z,77.43
2019-03-19T05:41:48.749Z,77.53
2019-03-19T05:44:21.047Z,77.62
2019-03-19T05:46:53.591Z,77.52
2019-03-19T05:49:25.887Z,77.47
2019-03-19T05:51:58.105Z,77.39
2019-03-19T05:54:30.414Z,77.26
2019-03-19T05:57:03.839Z,77.31
2019-03-19T05:59:36.130Z,77.32
2019-03-19T06:02:08.414Z,77.39
2019-03-19T06:04:40.690Z,77.36
2019-03-19T06:07:13.044Z,77.31
2019-03-19T06:09:45.427Z,77.20
2019-03-19T06:12:17.714Z,77.13
2019-03-19T06:14:50.051Z,76.99
2019-03-19T06:17:22.448Z,76.82
2019-03-19T06:19:54.658Z,76.58
2019-03-19T06:22:27.065Z,76.46
2019-03-19T06:24:59.662Z,76.31
2019-03-19T06:27:32.021Z,76.02
2019-03-19T06:30:04.591Z,75.60
2019-03-19T06:32:37.197Z,75.29
2019-03-19T06:35:09.645Z,74.89
2019-03-19T06:37:42.148Z,74.54
2019-03-19T06:40:14.873Z,73.98
2019-03-19T06:42:50.407Z,73.49
2019-03-19T06:45:23.272Z,72.99
2019-03-19T06:47:55.917Z,72.64
2019-03-19T06:50:28.426Z,72.22
2019-03-19T06:53:00.722Z,71.73
2019-03-19T06:55:33.713Z,71.43
2019-03-19T06:58:10.934Z,70.82
2019-03-19T07:00:40.564Z,70.09
2019-03-19T07:03:12.947Z,69.70
2019-03-19T07:05:45.330Z,68.80
2019-03-19T07:08:17.639Z,68.72
2019-03-19T07:10:50.082Z,67.92
2019-03-19T07:13:22.392Z,67.23
2019-03-19T07:15:56.956Z,67.33
2019-03-19T07:18:29.218Z,66.60
2019-03-19T07:21:01.352Z,67.31
2019-03-19T07:23:33.607Z,66.91
2019-03-19T07:26:05.881Z,66.75
2019-03-19T07:28:38.644Z,66.74
2019-03-19T07:31:11.716Z,66.05
2019-03-19T07:33:44.015Z,66.00
2019-03-19T07:36:16.348Z,65.94
2019-03-19T07:38:48.632Z,66.19
2019-03-19T07:41:20.867Z,65.99
2019-03-19T07:43:53.103Z,65.70
2019-03-19T07:46:25.424Z,65.49
2019-03-19T07:48:58.928Z,65.68
2019-03-19T07:51:31.522Z,65.58
2019-03-19T07:54:03.937Z,65.50
2019-03-19T07:56:36.277Z,65.44
2019-03-19T07:59:08.624Z,65.59
2019-03-19T08:01:41.073Z,65.28
2019-03-19T08:04:13.560Z,65.25
2019-03-19T08:06:46.034Z,65.55
2019-03-19T08:09:18.349Z,65.47
2019-03-19T08:11:50.540Z,65.37
2019-03-19T08:14:22.963Z,65.32
2019-03-19T08:16:55.218Z,64.86
2019-03-19T08:19:28.296Z,64.92
2019-03-19T08:22:00.507Z,65.28
2019-03-19T08:24:32.809Z,65.20
2019-03-19T08:27:05.091Z,65.15
2019-03-19T08:29:37.859Z,65.08
2019-03-19T08:32:10.138Z,64.61
2019-03-19T08:34:42.368Z,64.27
2019-03-19T08:37:15.648Z,64.09
2019-03-19T08:39:47.914Z,63.71
2019-03-19T08:42:20.162Z,63.12
2019-03-19T08:44:52.542Z,63.09
2019-03-19T08:47:24.943Z,62.73
2019-03-19T08:49:57.392Z,62.54
2019-03-19T08:52:29.708Z,62.29
2019-03-19T08:55:01.956Z,61.72
2019-03-19T08:57:34.562Z,61.37
2019-03-19T09:00:06.887Z,61.74
2019-03-19T09:02:40.317Z,61.64
2019-03-19T09:05:12.751Z,61.76
2019-03-19T09:07:45.107Z,61.72
2019-03-19T09:10:17.313Z,61.51
2019-03-19T09:12:49.546Z,61.85
2019-03-19T09:15:21.922Z,61.57
2019-03-19T09:17:54.214Z,61.37
2019-03-19T09:20:26.473Z,61.14
2019-03-19T09:22:58.744Z,61.20
2019-03-19T09:25:31.063Z,60.48
2019-03-19T09:28:03.381Z,60.28
2019-03-19T09:30:36.055Z,60.22
2019-03-19T09:33:09.455Z,60.21
2019-03-19T09:35:41.784Z,59.90
2019-03-19T09:38:14.484Z,60.08
2019-03-19T09:40:48.050Z,60.30
2019-03-19T09:43:20.435Z,60.11
2019-03-19T09:45:52.663Z,60.09
2019-03-19T09:48:24.915Z,59.88
2019-03-19T09:50:57.209Z,59.63
2019-03-19T09:53:29.505Z,59.52
2019-03-19T09:56:01.744Z,58.97
2019-03-19T09:58:34.381Z,58.57
2019-03-19T10:01:06.735Z,59.05
2019-03-19T10:03:39.053Z,59.08
2019-03-19T10:06:14.389Z,59.20
2019-03-19T10:08:45.454Z,59.53
2019-03-19T10:11:17.724Z,59.68
2019-03-19T10:13:50.034Z,59.55
2019-03-19T10:16:22.354Z,59.55
2019-03-19T10:18:54.558Z,58.72
2019-03-19T10:21:26.826Z,58.48
2019-03-19T10:23:58.949Z,56.62
2019-03-19T10:26:31.288Z,57.53
2019-03-19T10:29:03.703Z,57.22
2019-03-19T10:31:35.870Z,56.95
2019-03-19T10:34:08.140Z,57.07
2019-03-19T10:36:40.422Z,57.30
2019-03-19T10:39:12.528Z,58.35
2019-03-19T10:41:44.847Z,58.04
2019-03-19T10:44:17.217Z,58.39
2019-03-19T10:46:49.478Z,58.76
2019-03-19T10:49:21.742Z,58.13
2019-03-19T10:51:54.005Z,58.66
2019-03-19T10:54:26.311Z,58.90
2019-03-19T10:56:58.589Z,59.07
2019-03-19T10:59:30.943Z,59.11
2019-03-19T11:02:03.241Z,59.00
2019-03-19T11:04:37.875Z,58.57
2019-03-19T11:07:10.133Z,58.08
2019-03-19T11:09:42.586Z,57.75
2019-03-19T11:12:14.692Z,57.68
2019-03-19T11:14:47.302Z,58.13
2019-03-19T11:17:19.632Z,58.45
2019-03-19T11:19:51.876Z,58.09
2019-03-19T11:22:24.027Z,58.05
2019-03-19T11:24:56.254Z,57.19
2019-03-19T11:27:28.655Z,56.93
2019-03-19T11:30:00.991Z,55.80
2019-03-19T11:32:34.598Z,56.68
2019-03-19T11:35:06.990Z,57.26
2019-03-19T11:37:39.224Z,56.56
2019-03-19T11:40:11.469Z,55.75
2019-03-19T11:42:43.582Z,52.86
2019-03-19T11:45:16.006Z,52.69
2019-03-19T11:47:48.292Z,51.82
2019-03-19T11:50:20.640Z,48.48
2019-03-19T11:52:52.957Z,47.12
2019-03-19T11:55:25.279Z,45.96
2019-03-19T11:57:57.990Z,46.92
2019-03-19T12:00:30.488Z,47.75
2019-03-19T12:03:12.177Z,44.00
2019-03-19T12:05:36.764Z,41.47
2019-03-19T12:08:09.003Z,40.01
2019-03-19T12:10:41.418Z,38.54
2019-03-19T12:13:13.777Z,39.30
2019-03-19T12:15:46.263Z,37.31
2019-03-19T12:18:18.431Z,36.64
2019-03-19T12:20:50.681Z,37.29
2019-03-19T12:23:23.102Z,36.21
2019-03-19T12:25:55.514Z,35.16
2019-03-19T12:28:27.830Z,34.32
2019-03-19T12:31:00.196Z,33.80
2019-03-19T12:33:40.398Z,33.65
2019-03-19T12:36:06.591Z,35.67
2019-03-19T12:38:38.852Z,36.56
2019-03-19T12:41:11.312Z,34.84
2019-03-19T12:43:43.639Z,33.82
2019-03-19T12:46:15.909Z,31.75
2019-03-19T12:48:48.318Z,30.43
2019-03-19T12:51:20.703Z,31.65
2019-03-19T12:53:53.266Z,31.46
2019-03-19T12:56:26.769Z,31.50
2019-03-19T12:58:59.066Z,30.91
2019-03-19T13:01:31.594Z,31.76
2019-03-19T13:04:03.871Z,33.03
2019-03-19T13:06:36.129Z,33.51
2019-03-19T13:09:08.364Z,32.48
2019-03-19T13:11:40.999Z,31.67
2019-03-19T13:14:13.379Z,32.18
2019-03-19T13:16:45.657Z,32.14
2019-03-19T13:19:17.970Z,31.73
2019-03-19T13:21:50.216Z,32.11
2019-03-19T13:24:22.848Z,33.42
2019-03-19T13:26:55.226Z,35.68
2019-03-19T13:29:27.694Z,39.09
2019-03-19T13:32:00.277Z,41.40
2019-03-19T13:34:32.611Z,43.08
2019-03-19T13:37:06.123Z,44.21
2019-03-19T13:39:38.467Z,45.31
2019-03-19T13:42:10.687Z,46.19
2019-03-19T13:44:43.025Z,46.78
2019-03-19T13:47:15.331Z,47.57
2019-03-19T13:49:47.588Z,47.95
2019-03-19T13:52:19.837Z,47.71
2019-03-19T13:54:52.062Z,47.83
2019-03-19T13:57:25.561Z,48.47
2019-03-19T13:59:57.834Z,48.84
2019-03-19T14:02:30.043Z,48.78
2019-03-19T14:05:02.380Z,48.07
2019-03-19T14:07:34.902Z,48.68
2019-03-19T14:10:07.078Z,48.55
2019-03-19T14:12:39.627Z,49.14
2019-03-19T14:15:12.153Z,49.81
2019-03-19T14:17:44.371Z,50.36
2019-03-19T14:20:16.773Z,51.49
2019-03-19T14:22:49.018Z,52.56
2019-03-19T14:25:21.426Z,53.05
2019-03-19T14:27:53.719Z,52.62
2019-03-19T14:30:26.154Z,53.72
2019-03-19T14:32:58.359Z,54.27
2019-03-19T14:35:37.294Z,54.50
2019-03-19T14:38:05.004Z,54.41
2019-03-19T14:40:37.474Z,55.13
2019-03-19T14:43:10.818Z,55.21
2019-03-19T14:45:43.149Z,55.46
2019-03-19T14:48:15.476Z,54.75
2019-03-19T14:50:47.817Z,53.08
2019-03-19T14:53:20.114Z,52.65
2019-03-19T14:55:54.458Z,52.35
2019-03-19T14:58:27.103Z,52.98
2019-03-19T15:00:59.461Z,52.35
2019-03-19T15:03:32.703Z,52.69
2019-03-19T15:06:05.150Z,52.04
2019-03-19T15:08:38.013Z,51.66
2019-03-19T15:11:10.370Z,50.23
2019-03-19T15:13:42.734Z,50.11
2019-03-19T15:16:15.299Z,49.07
2019-03-19T15:18:48.090Z,48.55
2019-03-19T15:21:20.405Z,48.14
2019-03-19T15:23:52.912Z,46.31
2019-03-19T15:26:25.414Z,45.23
2019-03-19T15:28:57.986Z,45.17
2019-03-19T15:31:30.341Z,43.34
2019-03-19T15:34:03.008Z,42.98
2019-03-19T15:36:35.441Z,42.15
2019-03-19T15:39:08.175Z,42.55
2019-03-19T15:41:40.615Z,41.77
2019-03-19T15:44:15.375Z,40.10
2019-03-19T15:46:49.026Z,39.30
2019-03-19T15:49:21.548Z,39.72
2019-03-19T15:51:54.214Z,40.62
2019-03-19T15:54:26.838Z,42.21
2019-03-19T15:56:59.368Z,42.27
2019-03-19T15:59:31.765Z,41.64
2019-03-19T16:02:04.471Z,41.83
2019-03-19T16:04:37.003Z,41.64
2019-03-19T16:07:09.431Z,42.42
2019-03-19T16:09:41.964Z,41.57
2019-03-19T16:12:14.333Z,40.16
2019-03-19T16:14:46.867Z,38.71
2019-03-19T16:17:19.340Z,38.20
2019-03-19T16:19:51.835Z,35.74
2019-03-19T16:22:24.343Z,35.74
2019-03-19T16:24:56.583Z,34.86
2019-03-19T16:27:29.089Z,33.99
2019-03-19T16:30:01.499Z,32.96
2019-03-19T16:32:35.283Z,32.83
2019-03-19T16:35:07.689Z,32.57
2019-03-19T16:37:39.954Z,34.39
2019-03-19T16:40:12.325Z,35.45
2019-03-19T16:42:44.723Z,37.51
2019-03-19T16:45:18.594Z,39.42
2019-03-19T16:47:51.194Z,41.19
2019-03-19T16:50:23.580Z,42.32
2019-03-19T16:52:56.782Z,43.75
2019-03-19T16:55:29.315Z,44.75
2019-03-19T16:58:02.243Z,45.69
2019-03-19T17:00:34.551Z,46.47
2019-03-19T17:03:07.370Z,47.12
2019-03-19T17:05:39.862Z,47.71
2019-03-19T17:08:13.266Z,48.14
2019-03-19T17:10:45.607Z,48.47
2019-03-19T17:13:17.902Z,48.71
2019-03-19T17:15:50.309Z,49.07
2019-03-19T17:18:22.650Z,49.51
2019-03-19T17:20:57.060Z,50.08
2019-03-19T17:23:30.568Z,50.38
2019-03-19T17:26:02.881Z,50.51
2019-03-19T17:28:35.397Z,50.93
2019-03-19T17:31:07.694Z,51.30
2019-03-19T17:33:39.844Z,51.84
2019-03-19T17:36:12.341Z,52.06
2019-03-19T17:38:44.577Z,52.55
2019-03-19T17:41:16.677Z,52.89
2019-03-19T17:43:49.068Z,53.33
2019-03-19T17:46:21.298Z,53.51
2019-03-19T17:48:53.551Z,53.64
2019-03-19T17:51:25.817Z,53.65
2019-03-19T17:53:57.935Z,53.89
2019-03-19T17:56:48.385Z,54.21
2019-03-19T17:59:20.901Z,54.16
2019-03-19T18:01:53.257Z,54.18
2019-03-19T18:04:25.469Z,54.31
2019-03-19T18:06:58.870Z,54.55
2019-03-19T18:09:31.181Z,54.72
2019-03-19T18:12:03.393Z,54.95
2019-03-19T18:14:37.560Z,54.96
2019-03-19T18:17:10.976Z,54.98
2019-03-19T18:19:43.373Z,55.39
2019-03-19T18:22:15.638Z,55.49
2019-03-19T18:24:47.904Z,55.72
2019-03-19T18:27:20.130Z,55.96
2019-03-19T18:29:52.471Z,56.25
2019-03-19T18:32:34.657Z,56.23
2019-03-19T18:34:58.980Z,56.94
2019-03-19T18:37:31.244Z,57.17
2019-03-19T18:40:03.504Z,57.53
2019-03-19T18:42:35.813Z,57.77
2019-03-19T18:45:08.293Z,58.09
2019-03-19T18:47:40.652Z,58.64
2019-03-19T18:50:12.910Z,58.80
2019-03-19T18:52:45.180Z,58.71
2019-03-19T18:55:17.429Z,58.78
2019-03-19T18:57:49.724Z,59.13
2019-03-19T19:00:22.051Z,59.52
2019-03-19T19:02:54.274Z,59.88
2019-03-19T19:05:26.597Z,59.72
2019-03-19T19:07:59.247Z,59.89
2019-03-19T19:10:31.474Z,59.89
2019-03-19T19:13:03.700Z,60.26
2019-03-19T19:15:35.961Z,60.45
2019-03-19T19:18:08.195Z,60.49
2019-03-19T19:20:41.821Z,60.40
2019-03-19T19:23:14.284Z,60.34
2019-03-19T19:25:46.560Z,61.10
2019-03-19T19:28:18.772Z,60.57
2019-03-19T19:30:51.022Z,61.01
2019-03-19T19:33:23.459Z,60.43
2019-03-19T19:35:55.691Z,60.66
2019-03-19T19:38:28.162Z,60.90
2019-03-19T19:41:00.780Z,61.35
2019-03-19T19:43:33.039Z,61.48
2019-03-19T19:46:05.291Z,61.94
2019-03-19T19:48:38.731Z,62.07
2019-03-19T19:51:10.771Z,62.33
2019-03-19T19:53:43.093Z,62.54
2019-03-19T19:56:15.382Z,62.58
2019-03-19T19:58:47.718Z,62.47
2019-03-19T20:01:19.989Z,63.12
2019-03-19T20:03:52.054Z,62.86
2019-03-19T20:06:24.399Z,62.93
2019-03-19T20:08:56.799Z,63.18
2019-03-19T20:11:29.140Z,63.66
2019-03-19T20:14:01.406Z,63.63
2019-03-19T20:16:33.646Z,63.73
2019-03-19T20:19:05.869Z,63.75
2019-03-19T20:21:38.142Z,64.03
2019-03-19T20:24:10.527Z,64.09
2019-03-19T20:26:43.507Z,64.06
2019-03-19T20:29:15.919Z,64.58
2019-03-19T20:31:52.286Z,64.68
2019-03-19T20:34:24.577Z,64.65
2019-03-19T20:36:56.932Z,64.86
2019-03-19T20:39:29.310Z,65.00
2019-03-19T20:42:01.738Z,65.33
2019-03-19T20:44:34.033Z,65.35
2019-03-19T20:47:06.357Z,65.43
2019-03-19T20:49:47.323Z,65.37
2019-03-19T20:52:12.669Z,65.59
2019-03-19T20:54:44.925Z,65.83
2019-03-19T20:57:17.282Z,65.99
2019-03-19T20:59:49.795Z,66.06
2019-03-19T21:02:22.132Z,66.21
2019-03-19T21:04:54.328Z,66.18
2019-03-19T21:07:27.752Z,66.32
2019-03-19T21:09:59.873Z,66.28
2019-03-19T21:12:32.399Z,66.57
2019-03-19T21:15:04.724Z,66.57
2019-03-19T21:17:37.222Z,66.74
2019-03-19T21:20:09.620Z,66.73
2019-03-19T21:22:41.965Z,66.92
2019-03-19T21:25:14.294Z,66.93
2019-03-19T21:27:47.753Z,66.87
2019-03-19T21:30:20.006Z,67.01
2019-03-19T21:32:52.284Z,67.27
2019-03-19T21:35:24.589Z,67.62
2019-03-19T21:37:57.932Z,68.05
2019-03-19T21:40:30.242Z,68.11
2019-03-19T21:43:02.410Z,68.09
2019-03-19T21:45:34.687Z,68.28
2019-03-19T21:48:07.206Z,68.34
2019-03-19T21:50:39.518Z,68.52
2019-03-19T21:53:11.784Z,68.76
2019-03-19T21:55:44.125Z,68.64
2019-03-19T21:58:16.532Z,68.71
2019-03-19T22:00:48.659Z,68.57
2019-03-19T22:03:21.122Z,68.73
2019-03-19T22:05:53.551Z,68.83
2019-03-19T22:08:26.193Z,68.86
2019-03-19T22:10:58.619Z,68.95
2019-03-19T22:13:30.831Z,69.08
2019-03-19T22:16:03.152Z,68.99
2019-03-19T22:18:35.612Z,69.16
2019-03-19T22:21:07.977Z,69.29
2019-03-19T22:23:41.949Z,69.17
2019-03-19T22:26:14.300Z,69.09
2019-03-19T22:28:46.593Z,69.03
2019-03-19T22:31:18.852Z,68.81
2019-03-19T22:33:52.112Z,68.62
2019-03-19T22:36:24.591Z,68.41
2019-03-19T22:38:56.954Z,68.29
2019-03-19T22:41:29.443Z,68.05
2019-03-19T22:44:01.781Z,68.15
2019-03-19T22:46:34.117Z,68.29
2019-03-19T22:49:06.426Z,68.49
2019-03-19T22:51:38.804Z,68.82
2019-03-19T22:54:11.186Z,69.15
2019-03-19T22:56:43.524Z,69.25
2019-03-19T22:59:15.799Z,69.34
2019-03-19T23:01:48.037Z,69.44
2019-03-19T23:04:27.134Z,69.42
2019-03-19T23:06:55.374Z,69.42
2019-03-19T23:09:27.760Z,69.58
2019-03-19T23:12:00.159Z,69.61
2019-03-19T23:14:33.737Z,69.70
2019-03-19T23:17:07.411Z,69.77
2019-03-19T23:19:39.874Z,69.88
2019-03-19T23:22:12.100Z,69.86
2019-03-19T23:24:44.153Z,69.81
2019-03-19T23:27:16.529Z,69.66
2019-03-19T23:29:49.308Z,69.56
2019-03-19T23:32:24.770Z,69.59
2019-03-19T23:34:56.547Z,69.51
2019-03-19T23:37:29.462Z,69.43
2019-03-19T23:40:02.318Z,69.22
2019-03-19T23:42:36.158Z,69.04
2019-03-19T23:45:08.600Z,68.69
2019-03-19T23:47:40.884Z,68.20
2019-03-19T23:50:13.082Z,67.97
2019-03-19T23:52:45.675Z,67.48
2019-03-19T23:55:19.043Z,67.08
2019-03-19T23:57:51.807Z,66.68
